createdAt,value
2018-12-23T00:00:48.001Z,1010.5
2018-12-23T00:01:49.348Z,1010.4
2018-12-23T00:02:50.700Z,1010.5
2018-12-23T00:03:52.054Z,1010.5
2018-12-23T00:04:53.428Z,1010.5
2018-12-23T00:05:55.386Z,1010.5
2018-12-23T00:06:56.737Z,1010.5
2018-12-23T00:07:58.096Z,1010.6
2018-12-23T00:08:59.439Z,1010.6
2018-12-23T00:10:00.789Z,1010.6
2018-12-23T00:11:02.147Z,1010.6
2018-12-23T00:12:03.493Z,1010.6
2018-12-23T00:13:04.853Z,1010.6
2018-12-23T00:14:06.208Z,1010.6
2018-12-23T00:15:07.558Z,1010.6
2018-12-23T00:16:08.917Z,1010.6
2018-12-23T00:17:10.267Z,1010.6
2018-12-23T00:18:12.584Z,1010.6
2018-12-23T00:19:14.752Z,1010.7
2018-12-23T00:20:16.108Z,1010.8
2018-12-23T00:21:17.457Z,1010.7
2018-12-23T00:22:18.817Z,1010.7
2018-12-23T00:23:21.119Z,1010.8
2018-12-23T00:24:22.413Z,1010.7
2018-12-23T00:25:23.762Z,1010.7
2018-12-23T00:26:25.123Z,1010.7
2018-12-23T00:27:26.485Z,1010.7
2018-12-23T00:28:27.838Z,1010.8
2018-12-23T00:29:29.932Z,1010.8
2018-12-23T00:30:31.279Z,1010.8
2018-12-23T00:31:33.423Z,1010.7
2018-12-23T00:32:33.938Z,1010.7
2018-12-23T00:33:35.310Z,1010.7
2018-12-23T00:34:36.647Z,1010.7
2018-12-23T00:35:38.004Z,1010.7
2018-12-23T00:36:39.367Z,1010.7
2018-12-23T00:37:40.722Z,1010.7
2018-12-23T00:38:42.064Z,1010.7
2018-12-23T00:39:43.427Z,1010.8
2018-12-23T00:40:44.777Z,1010.8
2018-12-23T00:41:46.128Z,1010.8
2018-12-23T00:42:47.497Z,1010.8
2018-12-23T00:43:48.849Z,1010.7
2018-12-23T00:44:50.194Z,1010.8
2018-12-23T00:45:51.563Z,1010.9
2018-12-23T00:46:52.945Z,1010.8
2018-12-23T00:47:55.076Z,1010.8
2018-12-23T00:48:56.425Z,1010.9
2018-12-23T00:49:57.783Z,1010.9
2018-12-23T00:50:59.137Z,1010.9
2018-12-23T00:52:01.102Z,1010.9
2018-12-23T00:53:02.459Z,1010.9
2018-12-23T00:54:03.794Z,1010.9
2018-12-23T00:55:05.644Z,1010.9
2018-12-23T00:56:06.998Z,1010.9
2018-12-23T00:57:08.348Z,1010.9
2018-12-23T00:58:09.702Z,1010.9
2018-12-23T00:59:11.050Z,1010.9
2018-12-23T01:00:12.409Z,1010.9
2018-12-23T01:01:13.764Z,1010.9
2018-12-23T01:02:15.116Z,1010.9
2018-12-23T01:03:16.472Z,1010.9
2018-12-23T01:04:17.822Z,1010.9
2018-12-23T01:05:19.181Z,1011.0
2018-12-23T01:06:20.549Z,1010.9
2018-12-23T01:07:21.898Z,1010.9
2018-12-23T01:08:23.252Z,1011.0
2018-12-23T01:09:24.600Z,1010.9
2018-12-23T01:10:25.954Z,1011.0
2018-12-23T01:11:27.304Z,1011.0
2018-12-23T01:12:28.650Z,1011.0
2018-12-23T01:13:30.004Z,1011.0
2018-12-23T01:14:31.860Z,1010.9
2018-12-23T01:15:33.220Z,1010.9
2018-12-23T01:16:34.580Z,1010.9
2018-12-23T01:17:35.925Z,1010.9
2018-12-23T01:18:37.280Z,1010.9
2018-12-23T01:19:39.868Z,1010.9
2018-12-23T01:20:41.224Z,1010.9
2018-12-23T01:21:42.577Z,1011.0
2018-12-23T01:22:43.945Z,1011.1
2018-12-23T01:23:45.284Z,1011.1
2018-12-23T01:25:00.698Z,1011.1
2018-12-23T01:26:02.028Z,1011.2
2018-12-23T01:27:03.399Z,1011.2
2018-12-23T01:28:04.758Z,1011.2
2018-12-23T01:29:06.790Z,1011.1
2018-12-23T01:30:08.146Z,1011.1
2018-12-23T01:31:09.484Z,1011.1
2018-12-23T01:32:10.828Z,1011.1
2018-12-23T01:33:12.179Z,1011.1
2018-12-23T01:34:13.550Z,1011.1
2018-12-23T01:35:14.919Z,1011.1
2018-12-23T01:36:16.272Z,1011.1
2018-12-23T01:37:17.583Z,1011.1
2018-12-23T01:38:18.935Z,1011.2
2018-12-23T01:39:20.294Z,1011.1
2018-12-23T01:40:21.639Z,1011.2
2018-12-23T01:41:24.425Z,1011.2
2018-12-23T01:42:25.765Z,1011.2
2018-12-23T01:43:27.085Z,1011.2
2018-12-23T01:44:30.114Z,1011.1
2018-12-23T01:45:31.469Z,1011.1
2018-12-23T01:46:33.620Z,1011.1
2018-12-23T01:47:34.971Z,1011.1
2018-12-23T01:48:37.638Z,1011.1
2018-12-23T01:49:38.982Z,1011.2
2018-12-23T01:50:40.348Z,1011.1
2018-12-23T01:51:41.705Z,1011.1
2018-12-23T01:52:43.056Z,1011.1
2018-12-23T01:53:44.401Z,1011.0
2018-12-23T01:54:45.756Z,1011.0
2018-12-23T01:55:48.740Z,1011.0
2018-12-23T01:56:50.086Z,1011.0
2018-12-23T01:57:52.050Z,1011.0
2018-12-23T01:58:54.186Z,1011.0
2018-12-23T01:59:56.128Z,1010.9
2018-12-23T02:00:57.482Z,1011.0
2018-12-23T02:01:58.838Z,1011.0
2018-12-23T02:03:00.183Z,1011.0
2018-12-23T02:04:01.553Z,1011.0
2018-12-23T02:05:02.908Z,1011.0
2018-12-23T02:06:04.258Z,1010.9
2018-12-23T02:07:05.613Z,1011.0
2018-12-23T02:08:06.963Z,1011.0
2018-12-23T02:09:08.304Z,1011.0
2018-12-23T02:10:10.303Z,1011.0
2018-12-23T02:11:11.650Z,1011.0
2018-12-23T02:12:13.005Z,1011.0
2018-12-23T02:13:14.369Z,1011.0
2018-12-23T02:14:15.720Z,1011.1
2018-12-23T02:15:17.060Z,1011.1
2018-12-23T02:16:18.510Z,1011.1
2018-12-23T02:17:20.295Z,1011.2
2018-12-23T02:18:21.688Z,1011.1
2018-12-23T02:19:23.704Z,1011.2
2018-12-23T02:20:25.065Z,1011.1
2018-12-23T02:21:26.418Z,1011.1
2018-12-23T02:22:27.776Z,1011.1
2018-12-23T02:23:29.128Z,1011.0
2018-12-23T02:24:30.481Z,1011.0
2018-12-23T02:25:31.838Z,1011.0
2018-12-23T02:26:33.199Z,1011.0
2018-12-23T02:27:35.403Z,1011.0
2018-12-23T02:28:36.853Z,1011.0
2018-12-23T02:29:38.209Z,1011.0
2018-12-23T02:30:39.570Z,1011.0
2018-12-23T02:31:40.918Z,1011.0
2018-12-23T02:32:42.945Z,1011.1
2018-12-23T02:33:44.338Z,1011.1
2018-12-23T02:34:45.694Z,1011.1
2018-12-23T02:35:55.265Z,1011.1
2018-12-23T02:36:49.019Z,1011.1
2018-12-23T02:37:50.470Z,1011.1
2018-12-23T02:38:51.894Z,1011.2
2018-12-23T02:39:53.293Z,1011.2
2018-12-23T02:40:54.687Z,1011.2
2018-12-23T02:41:56.091Z,1011.3
2018-12-23T02:42:57.524Z,1011.2
2018-12-23T02:43:58.954Z,1011.2
2018-12-23T02:45:00.365Z,1011.2
2018-12-23T02:46:01.749Z,1011.2
2018-12-23T02:47:03.112Z,1011.2
2018-12-23T02:48:05.171Z,1011.2
2018-12-23T02:49:06.536Z,1011.2
2018-12-23T02:50:08.479Z,1011.1
2018-12-23T02:51:10.729Z,1011.1
2018-12-23T02:52:12.075Z,1011.1
2018-12-23T02:53:14.140Z,1011.2
2018-12-23T02:54:15.493Z,1011.2
2018-12-23T02:55:16.840Z,1011.1
2018-12-23T02:56:18.195Z,1011.1
2018-12-23T02:57:19.554Z,1011.2
2018-12-23T02:58:20.896Z,1011.1
2018-12-23T02:59:22.293Z,1011.1
2018-12-23T03:00:23.624Z,1011.1
2018-12-23T03:01:24.983Z,1011.1
2018-12-23T03:02:26.334Z,1011.0
2018-12-23T03:03:28.291Z,1011.0
2018-12-23T03:04:29.645Z,1011.0
2018-12-23T03:05:30.995Z,1011.0
2018-12-23T03:06:32.350Z,1011.0
2018-12-23T03:07:33.701Z,1011.0
2018-12-23T03:08:35.057Z,1011.0
2018-12-23T03:09:36.420Z,1011.1
2018-12-23T03:10:37.773Z,1011.1
2018-12-23T03:11:39.124Z,1011.1
2018-12-23T03:12:40.468Z,1011.1
2018-12-23T03:13:41.824Z,1011.1
2018-12-23T03:14:43.175Z,1011.0
2018-12-23T03:15:44.528Z,1011.0
2018-12-23T03:16:45.885Z,1011.0
2018-12-23T03:17:47.237Z,1011.1
2018-12-23T03:18:48.599Z,1011.1
2018-12-23T03:19:49.945Z,1011.1
2018-12-23T03:20:51.288Z,1011.1
2018-12-23T03:21:52.636Z,1011.1
2018-12-23T03:22:53.999Z,1011.1
2018-12-23T03:23:55.366Z,1011.1
2018-12-23T03:24:56.705Z,1011.1
2018-12-23T03:25:58.061Z,1011.0
2018-12-23T03:26:59.416Z,1011.0
2018-12-23T03:28:00.765Z,1011.0
2018-12-23T03:29:02.127Z,1011.1
2018-12-23T03:30:03.471Z,1011.1
2018-12-23T03:31:04.817Z,1011.1
2018-12-23T03:32:06.178Z,1011.1
2018-12-23T03:33:07.521Z,1011.1
2018-12-23T03:34:08.876Z,1011.1
2018-12-23T03:35:10.761Z,1011.1
2018-12-23T03:36:15.386Z,1011.1
2018-12-23T03:37:13.433Z,1011.1
2018-12-23T03:38:14.790Z,1011.1
2018-12-23T03:39:16.129Z,1011.1
2018-12-23T03:40:17.486Z,1011.1
2018-12-23T03:41:18.836Z,1011.1
2018-12-23T03:42:20.186Z,1011.1
2018-12-23T03:43:21.539Z,1011.1
2018-12-23T03:44:22.891Z,1011.1
2018-12-23T03:45:24.270Z,1011.1
2018-12-23T03:46:25.614Z,1011.1
2018-12-23T03:47:26.978Z,1011.1
2018-12-23T03:48:28.363Z,1011.1
2018-12-23T03:49:29.719Z,1011.2
2018-12-23T03:50:31.099Z,1011.2
2018-12-23T03:51:32.448Z,1011.2
2018-12-23T03:52:33.842Z,1011.2
2018-12-23T03:53:35.200Z,1011.2
2018-12-23T03:54:36.600Z,1011.2
2018-12-23T03:55:37.968Z,1011.2
2018-12-23T03:56:39.368Z,1011.2
2018-12-23T03:57:40.780Z,1011.2
2018-12-23T03:58:42.194Z,1011.2
2018-12-23T03:59:43.600Z,1011.1
2018-12-23T04:00:45.004Z,1011.1
2018-12-23T04:01:46.417Z,1011.1
2018-12-23T04:02:47.857Z,1011.1
2018-12-23T04:03:49.231Z,1011.1
2018-12-23T04:04:50.707Z,1011.1
2018-12-23T04:05:52.099Z,1011.2
2018-12-23T04:06:53.541Z,1011.1
2018-12-23T04:07:54.919Z,1011.2
2018-12-23T04:08:56.342Z,1011.2
2018-12-23T04:09:57.701Z,1011.2
2018-12-23T04:10:59.111Z,1011.2
2018-12-23T04:12:00.582Z,1011.2
2018-12-23T04:13:01.994Z,1011.2
2018-12-23T04:14:03.438Z,1011.2
2018-12-23T04:15:04.796Z,1011.2
2018-12-23T04:16:06.180Z,1011.2
2018-12-23T04:17:07.610Z,1011.2
2018-12-23T04:18:09.054Z,1011.2
2018-12-23T04:19:10.446Z,1011.3
2018-12-23T04:20:11.829Z,1011.3
2018-12-23T04:21:13.191Z,1011.3
2018-12-23T04:22:14.562Z,1011.3
2018-12-23T04:23:15.921Z,1011.2
2018-12-23T04:24:17.278Z,1011.2
2018-12-23T04:25:18.694Z,1011.2
2018-12-23T04:26:20.082Z,1011.2
2018-12-23T04:27:21.452Z,1011.2
2018-12-23T04:28:22.837Z,1011.2
2018-12-23T04:29:24.242Z,1011.1
2018-12-23T04:30:26.312Z,1011.1
2018-12-23T04:31:27.713Z,1011.2
2018-12-23T04:32:29.077Z,1011.2
2018-12-23T04:33:30.454Z,1011.2
2018-12-23T04:34:31.839Z,1011.2
2018-12-23T04:35:33.201Z,1011.2
2018-12-23T04:36:34.583Z,1011.1
2018-12-23T04:37:36.782Z,1011.1
2018-12-23T04:38:38.129Z,1011.1
2018-12-23T04:39:39.516Z,1011.1
2018-12-23T04:40:40.897Z,1011.1
2018-12-23T04:41:42.292Z,1011.2
2018-12-23T04:42:43.657Z,1011.2
2018-12-23T04:43:45.016Z,1011.2
2018-12-23T04:44:46.379Z,1011.2
2018-12-23T04:45:47.774Z,1011.2
2018-12-23T04:46:49.162Z,1011.2
2018-12-23T04:47:50.544Z,1011.1
2018-12-23T04:48:51.949Z,1011.1
2018-12-23T04:49:53.392Z,1011.1
2018-12-23T04:50:55.272Z,1011.1
2018-12-23T04:51:56.681Z,1011.1
2018-12-23T04:52:58.070Z,1011.1
2018-12-23T04:53:59.565Z,1011.1
2018-12-23T04:55:01.009Z,1011.0
2018-12-23T04:56:02.231Z,1011.0
2018-12-23T04:57:03.582Z,1011.1
2018-12-23T04:58:05.015Z,1011.1
2018-12-23T04:59:06.241Z,1011.1
2018-12-23T05:00:07.586Z,1011.1
2018-12-23T05:01:08.941Z,1011.1
2018-12-23T05:02:10.303Z,1011.1
2018-12-23T05:03:11.695Z,1011.1
2018-12-23T05:04:13.092Z,1011.1
2018-12-23T05:05:14.472Z,1011.1
2018-12-23T05:06:17.797Z,1011.1
2018-12-23T05:07:18.032Z,1011.1
2018-12-23T05:08:19.383Z,1011.2
2018-12-23T05:09:20.740Z,1011.2
2018-12-23T05:10:22.085Z,1011.1
2018-12-23T05:11:23.445Z,1011.1
2018-12-23T05:12:24.811Z,1011.1
2018-12-23T05:13:26.163Z,1011.1
2018-12-23T05:14:27.511Z,1011.1
2018-12-23T05:15:28.991Z,1011.1
2018-12-23T05:16:30.218Z,1011.1
2018-12-23T05:17:31.603Z,1011.1
2018-12-23T05:18:32.990Z,1011.1
2018-12-23T05:19:35.085Z,1011.2
2018-12-23T05:20:36.632Z,1011.2
2018-12-23T05:21:37.781Z,1011.2
2018-12-23T05:22:39.132Z,1011.2
2018-12-23T05:23:40.482Z,1011.1
2018-12-23T05:24:41.842Z,1011.2
2018-12-23T05:25:43.182Z,1011.1
2018-12-23T05:26:44.543Z,1011.1
2018-12-23T05:27:45.893Z,1011.1
2018-12-23T05:28:47.283Z,1011.1
2018-12-23T05:29:48.652Z,1011.1
2018-12-23T05:30:50.042Z,1011.1
2018-12-23T05:31:52.118Z,1011.1
2018-12-23T05:32:53.483Z,1011.1
2018-12-23T05:33:54.845Z,1011.1
2018-12-23T05:34:56.190Z,1011.1
2018-12-23T05:35:57.539Z,1011.0
2018-12-23T05:36:58.895Z,1011.1
2018-12-23T05:38:00.251Z,1011.1
2018-12-23T05:39:01.597Z,1011.1
2018-12-23T05:40:02.964Z,1011.1
2018-12-23T05:41:04.318Z,1011.1
2018-12-23T05:42:05.696Z,1011.2
2018-12-23T05:43:07.072Z,1011.2
2018-12-23T05:44:08.461Z,1011.2
2018-12-23T05:45:09.816Z,1011.2
2018-12-23T05:46:11.212Z,1011.2
2018-12-23T05:47:12.565Z,1011.2
2018-12-23T05:48:13.923Z,1011.2
2018-12-23T05:49:15.856Z,1011.2
2018-12-23T05:50:17.202Z,1011.3
2018-12-23T05:51:18.572Z,1011.2
2018-12-23T05:52:20.418Z,1011.2
2018-12-23T05:53:21.769Z,1011.1
2018-12-23T05:54:23.141Z,1011.1
2018-12-23T05:55:24.499Z,1011.1
2018-12-23T05:56:25.853Z,1011.1
2018-12-23T05:57:27.780Z,1011.1
2018-12-23T05:58:29.135Z,1011.1
2018-12-23T05:59:30.484Z,1011.1
2018-12-23T06:00:32.488Z,1011.1
2018-12-23T06:01:33.847Z,1011.1
2018-12-23T06:02:35.190Z,1011.1
2018-12-23T06:03:37.201Z,1011.1
2018-12-23T06:04:38.556Z,1011.1
2018-12-23T06:05:39.910Z,1011.1
2018-12-23T06:06:41.266Z,1011.1
2018-12-23T06:07:42.622Z,1011.1
2018-12-23T06:08:44.607Z,1011.1
2018-12-23T06:09:45.956Z,1011.1
2018-12-23T06:10:47.878Z,1011.2
2018-12-23T06:11:49.237Z,1011.2
2018-12-23T06:12:50.603Z,1011.2
2018-12-23T06:13:51.953Z,1011.2
2018-12-23T06:14:53.356Z,1011.3
2018-12-23T06:15:54.728Z,1011.3
2018-12-23T06:16:56.078Z,1011.3
2018-12-23T06:17:58.391Z,1011.3
2018-12-23T06:18:59.746Z,1011.3
2018-12-23T06:20:01.121Z,1011.3
2018-12-23T06:21:02.467Z,1011.4
2018-12-23T06:22:04.335Z,1011.3
2018-12-23T06:23:06.241Z,1011.3
2018-12-23T06:24:08.357Z,1011.3
2018-12-23T06:25:09.713Z,1011.4
2018-12-23T06:26:11.087Z,1011.3
2018-12-23T06:27:12.451Z,1011.4
2018-12-23T06:28:13.792Z,1011.4
2018-12-23T06:29:15.143Z,1011.4
2018-12-23T06:30:16.503Z,1011.3
2018-12-23T06:31:17.935Z,1011.4
2018-12-23T06:32:19.181Z,1011.3
2018-12-23T06:33:20.538Z,1011.4
2018-12-23T06:34:21.887Z,1011.3
2018-12-23T06:35:23.237Z,1011.4
2018-12-23T06:36:24.593Z,1011.4
2018-12-23T06:37:25.945Z,1011.4
2018-12-23T06:38:27.295Z,1011.4
2018-12-23T06:39:28.646Z,1011.4
2018-12-23T06:40:30.000Z,1011.4
2018-12-23T06:41:32.156Z,1011.5
2018-12-23T06:42:33.539Z,1011.5
2018-12-23T06:43:34.900Z,1011.5
2018-12-23T06:44:36.252Z,1011.5
2018-12-23T06:45:37.609Z,1011.5
2018-12-23T06:46:38.960Z,1011.5
2018-12-23T06:47:40.313Z,1011.5
2018-12-23T06:48:41.668Z,1011.5
2018-12-23T06:49:43.036Z,1011.5
2018-12-23T06:50:44.386Z,1011.6
2018-12-23T06:51:45.731Z,1011.6
2018-12-23T06:52:47.083Z,1011.6
2018-12-23T06:53:48.433Z,1011.5
2018-12-23T06:54:50.715Z,1011.6
2018-12-23T06:55:51.111Z,1011.6
2018-12-23T06:56:52.467Z,1011.6
2018-12-23T06:57:53.822Z,1011.6
2018-12-23T06:58:55.176Z,1011.6
2018-12-23T06:59:57.896Z,1011.6
2018-12-23T07:00:59.248Z,1011.6
2018-12-23T07:02:00.601Z,1011.6
2018-12-23T07:03:02.746Z,1011.5
2018-12-23T07:04:04.226Z,1011.5
2018-12-23T07:05:05.689Z,1011.5
2018-12-23T07:06:07.077Z,1011.5
2018-12-23T07:07:08.462Z,1011.5
2018-12-23T07:08:09.872Z,1011.5
2018-12-23T07:09:11.801Z,1011.6
2018-12-23T07:10:13.238Z,1011.6
2018-12-23T07:11:15.491Z,1011.6
2018-12-23T07:12:17.293Z,1011.5
2018-12-23T07:13:18.707Z,1011.5
2018-12-23T07:14:20.081Z,1011.5
2018-12-23T07:15:21.987Z,1011.5
2018-12-23T07:16:23.833Z,1011.5
2018-12-23T07:17:25.313Z,1011.5
2018-12-23T07:18:26.811Z,1011.5
2018-12-23T07:19:28.272Z,1011.5
2018-12-23T07:20:29.761Z,1011.5
2018-12-23T07:21:31.234Z,1011.5
2018-12-23T07:22:32.730Z,1011.5
2018-12-23T07:23:34.159Z,1011.5
2018-12-23T07:24:35.654Z,1011.5
2018-12-23T07:25:37.221Z,1011.5
2018-12-23T07:26:38.688Z,1011.6
2018-12-23T07:27:40.193Z,1011.6
2018-12-23T07:28:41.662Z,1011.5
2018-12-23T07:29:43.227Z,1011.6
2018-12-23T07:30:44.714Z,1011.6
2018-12-23T07:31:46.197Z,1011.5
2018-12-23T07:32:48.323Z,1011.5
2018-12-23T07:33:49.803Z,1011.6
2018-12-23T07:34:51.994Z,1011.5
2018-12-23T07:35:53.602Z,1011.6
2018-12-23T07:36:55.064Z,1011.5
2018-12-23T07:37:56.562Z,1011.5
2018-12-23T07:38:58.072Z,1011.5
2018-12-23T07:39:59.537Z,1011.5
2018-12-23T07:41:01.001Z,1011.5
2018-12-23T07:42:02.416Z,1011.5
2018-12-23T07:43:03.925Z,1011.5
2018-12-23T07:44:05.312Z,1011.5
2018-12-23T07:45:06.857Z,1011.5
2018-12-23T07:46:08.273Z,1011.5
2018-12-23T07:47:09.714Z,1011.4
2018-12-23T07:48:11.352Z,1011.5
2018-12-23T07:49:12.842Z,1011.4
2018-12-23T07:50:14.352Z,1011.5
2018-12-23T07:51:15.793Z,1011.4
2018-12-23T07:52:17.202Z,1011.4
2018-12-23T07:53:18.607Z,1011.4
2018-12-23T07:54:20.037Z,1011.4
2018-12-23T07:55:21.428Z,1011.4
2018-12-23T07:56:22.932Z,1011.4
2018-12-23T07:57:24.329Z,1011.4
2018-12-23T07:58:25.762Z,1011.5
2018-12-23T07:59:27.163Z,1011.5
2018-12-23T08:00:28.542Z,1011.5
2018-12-23T08:01:31.623Z,1011.5
2018-12-23T08:02:33.043Z,1011.5
2018-12-23T08:03:34.453Z,1011.5
2018-12-23T08:04:35.858Z,1011.5
2018-12-23T08:05:37.234Z,1011.5
2018-12-23T08:06:38.612Z,1011.5
2018-12-23T08:07:39.978Z,1011.5
2018-12-23T08:08:41.352Z,1011.6
2018-12-23T08:09:42.736Z,1011.5
2018-12-23T08:10:44.878Z,1011.6
2018-12-23T08:11:46.279Z,1011.6
2018-12-23T08:12:47.664Z,1011.6
2018-12-23T08:13:49.038Z,1011.6
2018-12-23T08:14:50.541Z,1011.6
2018-12-23T08:15:52.035Z,1011.6
2018-12-23T08:16:53.603Z,1011.6
2018-12-23T08:17:55.102Z,1011.6
2018-12-23T08:18:56.722Z,1011.6
2018-12-23T08:19:58.204Z,1011.6
2018-12-23T08:20:59.648Z,1011.6
2018-12-23T08:22:01.063Z,1011.6
2018-12-23T08:23:02.444Z,1011.6
2018-12-23T08:24:03.869Z,1011.6
2018-12-23T08:25:05.274Z,1011.6
2018-12-23T08:26:06.653Z,1011.6
2018-12-23T08:27:08.033Z,1011.5
2018-12-23T08:28:09.422Z,1011.6
2018-12-23T08:29:10.805Z,1011.5
2018-12-23T08:30:12.211Z,1011.5
2018-12-23T08:31:13.609Z,1011.5
2018-12-23T08:32:14.983Z,1011.5
2018-12-23T08:33:17.204Z,1011.5
2018-12-23T08:34:18.609Z,1011.5
2018-12-23T08:35:20.023Z,1011.6
2018-12-23T08:36:21.459Z,1011.6
2018-12-23T08:37:24.298Z,1011.6
2018-12-23T08:38:25.727Z,1011.6
2018-12-23T08:39:27.173Z,1011.6
2018-12-23T08:40:28.577Z,1011.6
2018-12-23T08:41:33.087Z,1011.6
2018-12-23T08:42:34.015Z,1011.6
2018-12-23T08:43:35.414Z,1011.7
2018-12-23T08:44:37.662Z,1011.7
2018-12-23T08:45:39.082Z,1011.6
2018-12-23T08:46:40.498Z,1011.6
2018-12-23T08:47:42.694Z,1011.6
2018-12-23T08:48:44.087Z,1011.6
2018-12-23T08:49:45.484Z,1011.6
2018-12-23T08:50:46.887Z,1011.6
2018-12-23T08:51:48.253Z,1011.6
2018-12-23T08:52:49.672Z,1011.6
2018-12-23T08:53:51.050Z,1011.6
2018-12-23T08:54:52.430Z,1011.5
2018-12-23T08:55:53.797Z,1011.6
2018-12-23T08:56:55.157Z,1011.6
2018-12-23T08:57:56.528Z,1011.5
2018-12-23T08:58:57.902Z,1011.5
2018-12-23T08:59:59.268Z,1011.5
2018-12-23T09:01:00.650Z,1011.5
2018-12-23T09:02:02.004Z,1011.5
2018-12-23T09:03:06.009Z,1011.5
2018-12-23T09:04:05.423Z,1011.5
2018-12-23T09:05:06.782Z,1011.4
2018-12-23T09:06:08.148Z,1011.5
2018-12-23T09:07:09.507Z,1011.5
2018-12-23T09:08:11.548Z,1011.5
2018-12-23T09:09:12.185Z,1011.4
2018-12-23T09:10:13.554Z,1011.4
2018-12-23T09:11:15.932Z,1011.4
2018-12-23T09:12:18.968Z,1011.4
2018-12-23T09:13:20.446Z,1011.5
2018-12-23T09:14:21.908Z,1011.5
2018-12-23T09:15:24.210Z,1011.4
2018-12-23T09:16:25.929Z,1011.4
2018-12-23T09:17:28.078Z,1011.5
2018-12-23T09:18:29.621Z,1011.4
2018-12-23T09:19:31.084Z,1011.4
2018-12-23T09:20:32.549Z,1011.4
2018-12-23T09:21:34.055Z,1011.4
2018-12-23T09:22:35.478Z,1011.4
2018-12-23T09:23:39.618Z,1011.4
2018-12-23T09:24:41.063Z,1011.4
2018-12-23T09:25:42.698Z,1011.3
2018-12-23T09:26:44.090Z,1011.3
2018-12-23T09:27:45.542Z,1011.4
2018-12-23T09:28:46.958Z,1011.4
2018-12-23T09:29:48.388Z,1011.4
2018-12-23T09:30:49.814Z,1011.4
2018-12-23T09:31:51.324Z,1011.4
2018-12-23T09:32:53.560Z,1011.4
2018-12-23T09:33:54.999Z,1011.3
2018-12-23T09:34:56.458Z,1011.3
2018-12-23T09:35:57.929Z,1011.3
2018-12-23T09:36:59.399Z,1011.3
2018-12-23T09:38:01.568Z,1011.3
2018-12-23T09:39:02.326Z,1011.3
2018-12-23T09:40:04.588Z,1011.3
2018-12-23T09:41:06.918Z,1011.3
2018-12-23T09:42:08.572Z,1011.3
2018-12-23T09:43:10.178Z,1011.3
2018-12-23T09:44:11.763Z,1011.3
2018-12-23T09:45:13.348Z,1011.2
2018-12-23T09:46:14.803Z,1011.3
2018-12-23T09:47:16.375Z,1011.2
2018-12-23T09:48:17.924Z,1011.3
2018-12-23T09:49:20.332Z,1011.3
2018-12-23T09:50:22.720Z,1011.3
2018-12-23T09:51:24.154Z,1011.3
2018-12-23T09:52:25.550Z,1011.2
2018-12-23T09:53:26.940Z,1011.2
2018-12-23T09:54:28.372Z,1011.2
2018-12-23T09:55:30.468Z,1011.2
2018-12-23T09:56:31.970Z,1011.1
2018-12-23T09:57:33.515Z,1011.1
2018-12-23T09:58:34.920Z,1011.1
2018-12-23T09:59:36.370Z,1011.1
2018-12-23T10:00:37.896Z,1011.0
2018-12-23T10:01:39.323Z,1011.0
2018-12-23T10:02:40.754Z,1011.0
2018-12-23T10:03:42.215Z,1011.1
2018-12-23T10:04:43.744Z,1011.0
2018-12-23T10:05:45.258Z,1011.0
2018-12-23T10:06:46.693Z,1011.0
2018-12-23T10:07:48.376Z,1010.9
2018-12-23T10:08:50.506Z,1010.9
2018-12-23T10:09:52.690Z,1010.9
2018-12-23T10:10:54.138Z,1010.9
2018-12-23T10:11:56.262Z,1010.8
2018-12-23T10:12:57.034Z,1010.8
2018-12-23T10:13:58.538Z,1010.8
2018-12-23T10:15:00.145Z,1010.8
2018-12-23T10:16:01.764Z,1010.8
2018-12-23T10:17:03.321Z,1010.7
2018-12-23T10:18:04.750Z,1010.7
2018-12-23T10:19:06.284Z,1010.7
2018-12-23T10:20:07.810Z,1010.7
2018-12-23T10:21:10.200Z,1010.7
2018-12-23T10:22:10.661Z,1010.7
2018-12-23T10:23:12.113Z,1010.7
2018-12-23T10:24:13.575Z,1010.7
2018-12-23T10:25:15.005Z,1010.7
2018-12-23T10:26:16.450Z,1010.7
2018-12-23T10:27:17.950Z,1010.7
2018-12-23T10:28:19.550Z,1010.7
2018-12-23T10:29:21.729Z,1010.7
2018-12-23T10:30:23.343Z,1010.6
2018-12-23T10:31:24.965Z,1010.7
2018-12-23T10:32:26.573Z,1010.7
2018-12-23T10:33:29.029Z,1010.6
2018-12-23T10:34:30.439Z,1010.6
2018-12-23T10:35:31.916Z,1010.6
2018-12-23T10:36:33.415Z,1010.6
2018-12-23T10:37:35.171Z,1010.6
2018-12-23T10:38:36.776Z,1010.6
2018-12-23T10:39:38.982Z,1010.6
2018-12-23T10:40:40.470Z,1010.5
2018-12-23T10:41:42.479Z,1010.5
2018-12-23T10:42:44.984Z,1010.5
2018-12-23T10:43:47.300Z,1010.5
2018-12-23T10:44:48.776Z,1010.5
2018-12-23T10:45:50.241Z,1010.4
2018-12-23T10:46:51.655Z,1010.4
2018-12-23T10:47:53.215Z,1010.3
2018-12-23T10:48:54.682Z,1010.4
2018-12-23T10:49:56.834Z,1010.3
2018-12-23T10:50:58.328Z,1010.3
2018-12-23T10:51:59.754Z,1010.3
2018-12-23T10:53:01.225Z,1010.2
2018-12-23T10:54:02.665Z,1010.2
2018-12-23T10:55:05.105Z,1010.2
2018-12-23T10:56:06.572Z,1010.1
2018-12-23T10:57:08.879Z,1010.1
2018-12-23T10:58:10.675Z,1010.1
2018-12-23T10:59:12.094Z,1010.2
2018-12-23T11:00:13.951Z,1010.1
2018-12-23T11:01:15.651Z,1010.1
2018-12-23T11:02:17.140Z,1010.1
2018-12-23T11:03:18.609Z,1010.1
2018-12-23T11:04:20.524Z,1010.1
2018-12-23T11:05:22.474Z,1010.0
2018-12-23T11:06:24.195Z,1010.0
2018-12-23T11:07:26.106Z,1010.0
2018-12-23T11:08:27.617Z,1009.9
2018-12-23T11:09:29.061Z,1009.9
2018-12-23T11:10:30.494Z,1009.8
2018-12-23T11:11:32.856Z,1009.8
2018-12-23T11:12:34.820Z,1009.8
2018-12-23T11:13:38.198Z,1009.8
2018-12-23T11:14:39.912Z,1009.8
2018-12-23T11:15:41.990Z,1009.7
2018-12-23T11:16:43.637Z,1009.7
2018-12-23T11:17:45.199Z,1009.7
2018-12-23T11:18:46.877Z,1009.6
2018-12-23T11:19:48.519Z,1009.7
2018-12-23T11:20:50.176Z,1009.6
2018-12-23T11:21:52.611Z,1009.5
2018-12-23T11:22:54.641Z,1009.5
2018-12-23T11:23:56.462Z,1009.4
2018-12-23T11:24:58.679Z,1009.4
2018-12-23T11:26:00.651Z,1009.5
2018-12-23T11:27:02.251Z,1009.4
2018-12-23T11:28:04.086Z,1009.4
2018-12-23T11:29:06.431Z,1009.4
2018-12-23T11:30:08.951Z,1009.4
2018-12-23T11:31:10.620Z,1009.3
2018-12-23T11:32:12.391Z,1009.3
2018-12-23T11:33:14.230Z,1009.3
2018-12-23T11:34:16.614Z,1009.2
2018-12-23T11:35:18.486Z,1009.1
2018-12-23T11:36:20.349Z,1009.1
2018-12-23T11:37:21.912Z,1009.1
2018-12-23T11:38:24.004Z,1009.1
2018-12-23T11:39:26.997Z,1009.1
2018-12-23T11:40:28.486Z,1009.1
2018-12-23T11:41:30.421Z,1009.0
2018-12-23T11:42:32.730Z,1009.0
2018-12-23T11:43:34.106Z,1009.0
2018-12-23T11:44:36.177Z,1009.1
2018-12-23T11:45:37.560Z,1009.0
2018-12-23T11:46:38.967Z,1009.1
2018-12-23T11:47:40.366Z,1009.0
2018-12-23T11:48:41.784Z,1009.0
2018-12-23T11:49:43.201Z,1009.0
2018-12-23T11:50:44.594Z,1009.0
2018-12-23T11:51:46.922Z,1009.0
2018-12-23T11:52:48.905Z,1009.0
2018-12-23T11:53:50.327Z,1009.0
2018-12-23T11:54:51.712Z,1009.0
2018-12-23T11:55:53.176Z,1008.9
2018-12-23T11:56:54.567Z,1009.0
2018-12-23T11:57:55.980Z,1009.0
2018-12-23T11:58:57.395Z,1008.9
2018-12-23T11:59:59.468Z,1008.9
2018-12-23T12:01:00.921Z,1008.9
2018-12-23T12:02:03.142Z,1008.9
2018-12-23T12:03:04.531Z,1008.9
2018-12-23T12:04:05.953Z,1008.9
2018-12-23T12:05:07.351Z,1008.8
2018-12-23T12:06:08.778Z,1008.9
2018-12-23T12:07:10.196Z,1008.9
2018-12-23T12:08:12.596Z,1008.9
2018-12-23T12:09:14.007Z,1008.9
2018-12-23T12:10:15.510Z,1008.9
2018-12-23T12:11:16.900Z,1008.8
2018-12-23T12:12:19.376Z,1008.9
2018-12-23T12:13:21.104Z,1008.9
2018-12-23T12:14:23.615Z,1008.9
2018-12-23T12:15:25.656Z,1008.8
2018-12-23T12:16:27.419Z,1008.8
2018-12-23T12:17:28.812Z,1008.8
2018-12-23T12:18:30.191Z,1008.8
2018-12-23T12:19:31.577Z,1008.7
2018-12-23T12:20:32.955Z,1008.7
2018-12-23T12:21:34.370Z,1008.7
2018-12-23T12:22:36.453Z,1008.7
2018-12-23T12:23:38.786Z,1008.7
2018-12-23T12:24:41.368Z,1008.7
2018-12-23T12:25:42.951Z,1008.6
2018-12-23T12:26:44.460Z,1008.6
2018-12-23T12:27:46.253Z,1008.6
2018-12-23T12:28:47.692Z,1008.6
2018-12-23T12:29:49.175Z,1008.5
2018-12-23T12:30:51.017Z,1008.5
2018-12-23T12:31:52.710Z,1008.4
2018-12-23T12:32:54.941Z,1008.5
2018-12-23T12:33:56.390Z,1008.4
2018-12-23T12:34:59.195Z,1008.4
2018-12-23T12:35:59.182Z,1008.3
2018-12-23T12:37:00.656Z,1008.3
2018-12-23T12:38:02.558Z,1008.4
2018-12-23T12:39:03.999Z,1008.4
2018-12-23T12:40:05.408Z,1008.3
2018-12-23T12:41:06.802Z,1008.3
2018-12-23T12:42:08.166Z,1008.3
2018-12-23T12:43:09.560Z,1008.3
2018-12-23T12:44:11.033Z,1008.2
2018-12-23T12:45:12.433Z,1008.3
2018-12-23T12:46:13.822Z,1008.2
2018-12-23T12:47:15.201Z,1008.2
2018-12-23T12:48:16.663Z,1008.2